Cathlamet — WYR7641 — position and weather

sailwx.info

Track history (hours):
 
Tides and Currents Weather Stations Pressure Air Temp Water Temp Dewpoint Dewpoint Depression Visibility Wind Speed Wind Dir Waves Ship Positions

Cathlamet

Owner: WASHINGTON, STATE OF; Dept. of Transportation, OLYMPIA, WA. More information available from US FCC via Universal Licensing System and Coast Guard Vessel Documentation Center.

Last reported at 2016-Jul-24 16:34 UTC. Time now 2016-Jul-24 16:42 UTC.
Position N 47°31' W 122°24'.

Length 100 m.

Type: Passenger vessel. MMSI: 366773070.

Date/timePositionNaut miles runAvg speedWind from/ knotsBaromVisibWave heightAir tempDewpointWater temp
2016-Jul-24 16:34N 47°31' W 122°24'0 0.3
2016-Jul-24 15:33N 47°31' W 122°24'3 2.8
2016-Jul-24 14:34N 47°31' W 122°28'0 0.0
2016-Jul-24 13:34N 47°31' W 122°28'0 0.0
2016-Jul-24 12:34N 47°31' W 122°28'0 0.0
2016-Jul-24 11:33N 47°31' W 122°28'0 0.0
2016-Jul-24 10:34N 47°31' W 122°28'0 0.0
2016-Jul-24 09:34N 47°31' W 122°28'0 0.0
2016-Jul-24 08:34N 47°31' W 122°28'0 0.0
2016-Jul-24 07:34N 47°31' W 122°28'0 0.0
2016-Jul-24 06:34N 47°31' W 122°28'3 2.8
2016-Jul-24 05:33N 47°31' W 122°24'3 2.8
2016-Jul-24 04:34N 47°31' W 122°28'0 0.3
2016-Jul-24 03:33N 47°31' W 122°28'3 2.8
2016-Jul-24 02:33N 47°31' W 122°24'0 0.0
2016-Jul-24 01:33N 47°31' W 122°24'0 0.0
2016-Jul-24 00:33N 47°31' W 122°24'0 0.0
2016-Jul-23 23:32N 47°31' W 122°24'0 0.0
2016-Jul-23 22:31N 47°31' W 122°24'4 4.3
2016-Jul-23 21:33N 47°31' W 122°30'4 4.0
2016-Jul-23 20:32N 47°31' W 122°24'0 0.0
2016-Jul-23 19:33N 47°31' W 122°24'4 4.0
2016-Jul-23 18:34N 47°31' W 122°30'2 2.2
2016-Jul-23 17:33N 47°31' W 122°26'2 1.7
2016-Jul-23 16:33N 47°31' W 122°24'0 0.0
2016-Jul-23 15:33N 47°31' W 122°24'3 2.8
2016-Jul-23 14:34N 47°31' W 122°28'0 0.0
2016-Jul-23 13:33N 47°31' W 122°28'0 0.0
2016-Jul-23 12:33N 47°31' W 122°28'0 0.0
2016-Jul-23 11:34N 47°31' W 122°28'0 0.0
2016-Jul-23 10:34N 47°31' W 122°28'0 0.0
2016-Jul-23 09:34N 47°31' W 122°28'0 0.0
2016-Jul-23 08:34N 47°31' W 122°28'0 0.0
2016-Jul-23 07:34N 47°31' W 122°28'0 0.0
2016-Jul-23 06:34N 47°31' W 122°28'0 0.1
2016-Jul-23 04:33N 47°31' W 122°28'1 0.6
2016-Jul-23 03:34N 47°31' W 122°29'3 3.3
2016-Jul-23 02:33N 47°31' W 122°24'4 4.1
2016-Jul-23 01:33N 47°31' W 122°30'4 4.1
2016-Jul-23 00:33N 47°31' W 122°24'0 0.0
2016-Jul-22 23:33N 47°31' W 122°24'0 0.0
2016-Jul-22 22:33N 47°31' W 122°24'3 2.6
2016-Jul-22 21:33N 47°31' W 122°28'1 1.4
2016-Jul-22 20:34N 47°31' W 122°26'2 1.9
2016-Jul-22 19:34N 47°31' W 122°29'3 3.2
2016-Jul-22 18:33N 47°31' W 122°24'0 0.3
2016-Jul-22 17:33N 47°31' W 122°24'2 2.5
2016-Jul-22 16:34N 47°31' W 122°28'0 0.1
2016-Jul-22 15:33N 47°31' W 122°28'3 2.7
2016-Jul-22 14:33N 47°31' W 122°24'0 0.3
2016-Jul-22 13:33N 47°31' W 122°24'2 2.4
2016-Jul-22 12:33N 47°31' W 122°28'0 0.0
2016-Jul-22 11:33N 47°31' W 122°28'1 0.9
2016-Jul-22 10:33N 47°31' W 122°29'1 0.9
2016-Jul-22 09:34N 47°31' W 122°28'0 0.0
2016-Jul-22 08:34N 47°31' W 122°28'1 1.3
2016-Jul-22 07:34N 47°31' W 122°30'4 1.8
2016-Jul-22 05:33N 47°31' W 122°24'0 0.4
2016-Jul-22 04:33N 47°31' W 122°24'3 3.4
2016-Jul-22 03:33N 47°31' W 122°29'3 3.3
2016-Jul-22 02:33N 47°31' W 122°24'3 2.8
2016-Jul-22 01:34N 47°31' W 122°28'0 0.1
2016-Jul-22 00:33N 47°31' W 122°28'1 1.3
2016-Jul-21 23:33N 47°31' W 122°30'4 3.6
2016-Jul-21 22:34N 47°31' W 122°24'3 3.0
2016-Jul-21 21:34N 47°31' W 122°29'2 1.6
2016-Jul-21 20:33N 47°31' W 122°27'1 1.0
2016-Jul-21 19:34N 47°31' W 122°28'3 2.9
2016-Jul-21 18:33N 47°31' W 122°24'1 0.6
2016-Jul-21 17:34N 47°31' W 122°25'2 2.2
2016-Jul-21 16:33N 47°31' W 122°28'0 0.0
2016-Jul-21 15:33N 47°31' W 122°28'3 2.6
2016-Jul-21 14:33N 47°31' W 122°24'0 0.0
2016-Jul-21 13:33N 47°31' W 122°24'3 2.6
2016-Jul-21 12:33N 47°31' W 122°28'0 0.0
2016-Jul-21 11:34N 47°31' W 122°28'1 0.9
2016-Jul-21 10:34N 47°31' W 122°29'1 0.9
2016-Jul-21 09:33N 47°31' W 122°28'1 1.3
2016-Jul-21 08:33N 47°31' W 122°30'2 2.0
2016-Jul-21 07:34N 47°31' W 122°27'2 2.1
2016-Jul-21 06:33N 47°31' W 122°24'2 2.5
2016-Jul-21 05:34N 47°31' W 122°27'0 0.3
2016-Jul-21 04:33N 47°31' W 122°28'1 0.6
2016-Jul-21 03:33N 47°31' W 122°29'3 2.7
2016-Jul-21 02:34N 47°31' W 122°25'4 3.5
2016-Jul-21 01:34N 47°31' W 122°30'4 4.1
2016-Jul-21 00:34N 47°31' W 122°24'0 0.0
2016-Jul-20 23:33N 47°31' W 122°24'0 0.0
2016-Jul-20 22:32N 47°31' W 122°24'3 2.7
2016-Jul-20 21:34N 47°32' W 122°28'1 1.2
2016-Jul-20 20:33N 47°31' W 122°26'2 2.2
2016-Jul-20 19:33N 47°31' W 122°29'4 3.7
2016-Jul-20 18:33N 47°31' W 122°24'0 0.0
2016-Jul-20 17:33N 47°31' W 122°24'3 2.8
2016-Jul-20 16:33N 47°31' W 122°28'0 0.0
2016-Jul-20 15:33N 47°31' W 122°28'3 2.6
2016-Jul-20 14:33N 47°31' W 122°24'0 0.2
2016-Jul-20 13:33N 47°31' W 122°24'3 2.8
2016-Jul-20 12:33N 47°31' W 122°28'0 0.0
2016-Jul-20 11:34N 47°31' W 122°28'1 1.1
2016-Jul-20 10:33N 47°31' W 122°29'1 1.1
2016-Jul-20 09:34N 47°31' W 122°28'1 1.3
2016-Jul-20 08:33N 47°31' W 122°30'1 1.2
2016-Jul-20 07:33N 47°31' W 122°28'3 2.8
2016-Jul-20 06:34N 47°31' W 122°24'2 1.8
2016-Jul-20 05:33N 47°31' W 122°26'1 0.9
2016-Jul-20 04:33N 47°31' W 122°28'0 0.5
2016-Jul-20 03:33N 47°31' W 122°28'3 2.9
2016-Jul-20 02:34N 47°31' W 122°24'4 3.9
2016-Jul-20 01:34N 47°31' W 122°30'4 4.0
2016-Jul-20 00:33N 47°31' W 122°24'0 0.0
2016-Jul-19 23:33N 47°31' W 122°24'0 0.0
2016-Jul-19 22:33N 47°31' W 122°24'1 1.3
2016-Jul-19 21:33N 47°31' W 122°26'0 0.3
2016-Jul-19 20:34N 47°31' W 122°26'2 1.6
2016-Jul-19 19:33N 47°31' W 122°28'3 3.0
2016-Jul-19 18:33N 47°31' W 122°24'0 0.0
2016-Jul-19 17:33N 47°31' W 122°24'3 2.8
2016-Jul-19 16:33N 47°31' W 122°28'0 0.0
2016-Jul-19 15:34N 47°31' W 122°28'3 2.5
2016-Jul-19 14:34N 47°31' W 122°24'0 0.1
2016-Jul-19 13:33N 47°31' W 122°24'3 2.6
2016-Jul-19 12:33N 47°31' W 122°28'0 0.0
2016-Jul-19 11:34N 47°31' W 122°28'1 1.2
2016-Jul-19 10:34N 47°31' W 122°30'1 1.2
2016-Jul-19 09:33N 47°31' W 122°28'1 1.3
2016-Jul-19 08:33N 47°31' W 122°30'2 2.1
2016-Jul-19 07:33N 47°31' W 122°27'0 0.1
2016-Jul-19 04:34N 47°31' W 122°27'1 0.8
2016-Jul-19 03:33N 47°31' W 122°28'3 3.0
2016-Jul-19 02:32N 47°31' W 122°24'4 4.1
2016-Jul-19 01:33N 47°31' W 122°30'4 4.0
2016-Jul-19 00:34N 47°31' W 122°24'0 0.1
2016-Jul-18 23:33N 47°31' W 122°24'0 0.0
2016-Jul-18 22:33N 47°31' W 122°24'2 2.1
2016-Jul-18 21:33N 47°31' W 122°27'1 1.2
2016-Jul-18 20:33N 47°32' W 122°25'2 2.2
2016-Jul-18 19:34N 47°31' W 122°28'3 3.0
2016-Jul-18 18:33N 47°31' W 122°24'0 0.0
2016-Jul-18 17:33N 47°31' W 122°24'3 2.8
2016-Jul-18 16:34N 47°31' W 122°28'0 0.1
2016-Jul-18 15:33N 47°31' W 122°28'3 2.6
2016-Jul-18 14:33N 47°31' W 122°24'0 0.1
2016-Jul-18 13:34N 47°31' W 122°24'3 2.7
2016-Jul-18 12:33N 47°31' W 122°28'0 0.0
2016-Jul-18 11:33N 47°31' W 122°28'1 1.1
2016-Jul-18 10:34N 47°31' W 122°29'1 1.1
2016-Jul-18 09:33N 47°31' W 122°28'1 1.3
2016-Jul-18 08:33N 47°31' W 122°30'1 1.3
2016-Jul-18 07:33N 47°31' W 122°28'3 2.8
2016-Jul-18 06:33N 47°31' W 122°24'3 2.7
2016-Jul-18 05:34N 47°31' W 122°28'1 0.5
2016-Jul-18 04:33N 47°31' W 122°27'1 0.7
2016-Jul-18 03:33N 47°31' W 122°28'0 0.0
2016-Jul-18 02:33N 47°31' W 122°28'1 0.8
2016-Jul-18 01:33N 47°31' W 122°29'3 3.3
2016-Jul-18 00:33N 47°31' W 122°24'3 2.7
2016-Jul-17 23:33N 47°31' W 122°28'0 0.1
2016-Jul-17 22:33N 47°31' W 122°28'3 2.7
2016-Jul-17 21:33N 47°31' W 122°24'2 2.2
2016-Jul-17 20:34N 47°31' W 122°27'1 1.2
2016-Jul-17 19:33N 47°31' W 122°29'1 1.3
2016-Jul-17 18:33N 47°31' W 122°27'1 0.7
2016-Jul-17 17:33N 47°31' W 122°28'0 0.0
2016-Jul-17 16:34N 47°31' W 122°28'0 0.3
2016-Jul-17 15:33N 47°31' W 122°28'1 1.3
2016-Jul-17 14:33N 47°31' W 122°30'4 3.9
2016-Jul-17 13:33N 47°31' W 122°24'3 2.8
2016-Jul-17 12:33N 47°31' W 122°28'0 0.0
2016-Jul-17 11:33N 47°31' W 122°28'1 1.3
2016-Jul-17 10:33N 47°31' W 122°30'1 1.3
2016-Jul-17 09:33N 47°31' W 122°28'1 1.3
2016-Jul-17 08:34N 47°31' W 122°30'1 0.6
2016-Jul-17 07:33N 47°31' W 122°29'3 3.4
2016-Jul-17 06:33N 47°31' W 122°24'3 1.4
2016-Jul-17 04:34N 47°31' W 122°28'0 0.2
2016-Jul-17 03:33N 47°31' W 122°28'0 0.0
2016-Jul-17 02:33N 47°31' W 122°28'0 0.0
2016-Jul-17 01:33N 47°31' W 122°28'3 2.8
2016-Jul-17 00:33N 47°31' W 122°24'3 2.8
2016-Jul-16 23:33N 47°31' W 122°28'0 0.0
2016-Jul-16 22:33N 47°31' W 122°28'3 2.6
2016-Jul-16 21:33N 47°31' W 122°24'3 2.7
2016-Jul-16 20:34N 47°31' W 122°28'1 0.7
2016-Jul-16 19:33N 47°31' W 122°29'2 1.9
2016-Jul-16 18:33N 47°31' W 122°26'1 1.2
2016-Jul-16 17:34N 47°31' W 122°28'0 0.0
2016-Jul-16 16:33N 47°31' W 122°28'1 1.0
2016-Jul-16 15:34N 47°31' W 122°27'2 2.0
2016-Jul-16 14:34N 47°31' W 122°29'4 3.8
2016-Jul-16 13:33N 47°31' W 122°24'3 2.8
2016-Jul-16 12:33N 47°31' W 122°28'0 0.0
2016-Jul-16 11:34N 47°31' W 122°28'1 1.3
2016-Jul-16 10:33N 47°31' W 122°30'2 2.3
2016-Jul-16 09:34N 47°31' W 122°26'1 1.0
2016-Jul-16 08:34N 47°31' W 122°28'0 0.2
2016-Jul-16 07:33N 47°31' W 122°28'1 1.3
2016-Jul-16 06:33N 47°31' W 122°30'1 0.7
2016-Jul-16 04:33N 47°31' W 122°28'0 0.0
2016-Jul-16 03:33N 47°31' W 122°28'1 1.2
2016-Jul-16 02:33N 47°31' W 122°30'4 3.9
2016-Jul-16 01:34N 47°31' W 122°24'3 2.8
2016-Jul-16 00:34N 47°31' W 122°28'0 0.0
2016-Jul-15 23:33N 47°31' W 122°28'2 1.7
2016-Jul-15 22:33N 47°31' W 122°25'1 1.1
2016-Jul-15 21:33N 47°31' W 122°24'3 2.8
2016-Jul-15 20:33N 47°31' W 122°28'2 1.6
2016-Jul-15 19:33N 47°31' W 122°25'1 1.4
2016-Jul-15 18:33N 47°31' W 122°28'0 0.1
2016-Jul-15 17:34N 47°31' W 122°27'0 0.4
2016-Jul-15 16:33N 47°31' W 122°28'3 2.8
2016-Jul-15 15:33N 47°31' W 122°24'3 2.8
2016-Jul-15 14:33N 47°31' W 122°28'0 0.2
2016-Jul-15 13:34N 47°31' W 122°28'0 0.0
2016-Jul-15 12:33N 47°31' W 122°28'0 0.0
2016-Jul-15 11:33N 47°31' W 122°28'0 0.0
2016-Jul-15 10:33N 47°31' W 122°28'0 0.0
2016-Jul-15 09:33N 47°31' W 122°28'0 0.0
2016-Jul-15 08:34N 47°31' W 122°28'0 0.0
2016-Jul-15 07:34N 47°31' W 122°28'0 0.0
2016-Jul-15 06:33N 47°31' W 122°28'0 0.0
2016-Jul-15 05:33N 47°31' W 122°28'0 0.0
2016-Jul-15 04:34N 47°31' W 122°28'0 0.4
2016-Jul-15 03:34N 47°31' W 122°27'2 1.6
2016-Jul-15 02:33N 47°31' W 122°30'4 3.9
2016-Jul-15 01:31N 47°31' W 122°24'3 2.9
2016-Jul-15 00:33N 47°31' W 122°28'0 0.1
2016-Jul-14 23:33N 47°31' W 122°28'0 0.2
2016-Jul-14 22:34N 47°31' W 122°28'2 2.3
2016-Jul-14 21:33N 47°31' W 122°24'3 2.5
2016-Jul-14 20:34N 47°31' W 122°28'0 0.0
2016-Jul-14 19:33N 47°31' W 122°28'0 0.0
2016-Jul-14 18:34N 47°31' W 122°28'0 0.5
2016-Jul-14 17:34N 47°31' W 122°27'0 0.4
2016-Jul-14 16:34N 47°31' W 122°28'2 2.1
2016-Jul-14 15:33N 47°31' W 122°25'  
Track history (hours):
 
Tides and Currents Weather Stations Pressure Air Temp Water Temp Dewpoint Dewpoint Depression Visibility Wind Speed Wind Dir Waves Ship Positions

Cathlamet

Owner: WASHINGTON, STATE OF; Dept. of Transportation, OLYMPIA, WA. More information available from US FCC via Universal Licensing System and Coast Guard Vessel Documentation Center.

Last reported at 2016-Jul-24 16:34 UTC. Time now 2016-Jul-24 16:42 UTC.
Position N 47°31' W 122°24'.

Length 100 m.

Type: Passenger vessel. MMSI: 366773070.

Date/timePositionNaut miles runAvg speedWind from/ knotsBaromVisibWave heightAir tempDewpointWater temp
2016-Jul-24 16:34N 47°31' W 122°24'0 0.3
2016-Jul-24 15:33N 47°31' W 122°24'3 2.8
2016-Jul-24 14:34N 47°31' W 122°28'0 0.0
2016-Jul-24 13:34N 47°31' W 122°28'0 0.0
2016-Jul-24 12:34N 47°31' W 122°28'0 0.0
2016-Jul-24 11:33N 47°31' W 122°28'0 0.0
2016-Jul-24 10:34N 47°31' W 122°28'0 0.0
2016-Jul-24 09:34N 47°31' W 122°28'0 0.0
2016-Jul-24 08:34N 47°31' W 122°28'0 0.0
2016-Jul-24 07:34N 47°31' W 122°28'0 0.0
2016-Jul-24 06:34N 47°31' W 122°28'3 2.8
2016-Jul-24 05:33N 47°31' W 122°24'3 2.8
2016-Jul-24 04:34N 47°31' W 122°28'0 0.3
2016-Jul-24 03:33N 47°31' W 122°28'3 2.8
2016-Jul-24 02:33N 47°31' W 122°24'0 0.0
2016-Jul-24 01:33N 47°31' W 122°24'0 0.0
2016-Jul-24 00:33N 47°31' W 122°24'0 0.0
2016-Jul-23 23:32N 47°31' W 122°24'0 0.0
2016-Jul-23 22:31N 47°31' W 122°24'4 4.3
2016-Jul-23 21:33N 47°31' W 122°30'4 4.0
2016-Jul-23 20:32N 47°31' W 122°24'0 0.0
2016-Jul-23 19:33N 47°31' W 122°24'4 4.0
2016-Jul-23 18:34N 47°31' W 122°30'2 2.2
2016-Jul-23 17:33N 47°31' W 122°26'2 1.7
2016-Jul-23 16:33N 47°31' W 122°24'0 0.0
2016-Jul-23 15:33N 47°31' W 122°24'3 2.8
2016-Jul-23 14:34N 47°31' W 122°28'0 0.0
2016-Jul-23 13:33N 47°31' W 122°28'0 0.0
2016-Jul-23 12:33N 47°31' W 122°28'0 0.0
2016-Jul-23 11:34N 47°31' W 122°28'0 0.0
2016-Jul-23 10:34N 47°31' W 122°28'0 0.0
2016-Jul-23 09:34N 47°31' W 122°28'0 0.0
2016-Jul-23 08:34N 47°31' W 122°28'0 0.0
2016-Jul-23 07:34N 47°31' W 122°28'0 0.0
2016-Jul-23 06:34N 47°31' W 122°28'0 0.1
2016-Jul-23 04:33N 47°31' W 122°28'1 0.6
2016-Jul-23 03:34N 47°31' W 122°29'3 3.3
2016-Jul-23 02:33N 47°31' W 122°24'4 4.1
2016-Jul-23 01:33N 47°31' W 122°30'4 4.1
2016-Jul-23 00:33N 47°31' W 122°24'0 0.0
2016-Jul-22 23:33N 47°31' W 122°24'0 0.0
2016-Jul-22 22:33N 47°31' W 122°24'3 2.6
2016-Jul-22 21:33N 47°31' W 122°28'1 1.4
2016-Jul-22 20:34N 47°31' W 122°26'2 1.9
2016-Jul-22 19:34N 47°31' W 122°29'3 3.2
2016-Jul-22 18:33N 47°31' W 122°24'0 0.3
2016-Jul-22 17:33N 47°31' W 122°24'2 2.5
2016-Jul-22 16:34N 47°31' W 122°28'0 0.1
2016-Jul-22 15:33N 47°31' W 122°28'3 2.7
2016-Jul-22 14:33N 47°31' W 122°24'0 0.3
2016-Jul-22 13:33N 47°31' W 122°24'2 2.4
2016-Jul-22 12:33N 47°31' W 122°28'0 0.0
2016-Jul-22 11:33N 47°31' W 122°28'1 0.9
2016-Jul-22 10:33N 47°31' W 122°29'1 0.9
2016-Jul-22 09:34N 47°31' W 122°28'0 0.0
2016-Jul-22 08:34N 47°31' W 122°28'1 1.3
2016-Jul-22 07:34N 47°31' W 122°30'4 1.8
2016-Jul-22 05:33N 47°31' W 122°24'0 0.4
2016-Jul-22 04:33N 47°31' W 122°24'3 3.4
2016-Jul-22 03:33N 47°31' W 122°29'3 3.3
2016-Jul-22 02:33N 47°31' W 122°24'3 2.8
2016-Jul-22 01:34N 47°31' W 122°28'0 0.1
2016-Jul-22 00:33N 47°31' W 122°28'1 1.3
2016-Jul-21 23:33N 47°31' W 122°30'4 3.6
2016-Jul-21 22:34N 47°31' W 122°24'3 3.0
2016-Jul-21 21:34N 47°31' W 122°29'2 1.6
2016-Jul-21 20:33N 47°31' W 122°27'1 1.0
2016-Jul-21 19:34N 47°31' W 122°28'3 2.9
2016-Jul-21 18:33N 47°31' W 122°24'1 0.6
2016-Jul-21 17:34N 47°31' W 122°25'2 2.2
2016-Jul-21 16:33N 47°31' W 122°28'0 0.0
2016-Jul-21 15:33N 47°31' W 122°28'3 2.6
2016-Jul-21 14:33N 47°31' W 122°24'0 0.0
2016-Jul-21 13:33N 47°31' W 122°24'3 2.6
2016-Jul-21 12:33N 47°31' W 122°28'0 0.0
2016-Jul-21 11:34N 47°31' W 122°28'1 0.9
2016-Jul-21 10:34N 47°31' W 122°29'1 0.9
2016-Jul-21 09:33N 47°31' W 122°28'1 1.3
2016-Jul-21 08:33N 47°31' W 122°30'2 2.0
2016-Jul-21 07:34N 47°31' W 122°27'2 2.1
2016-Jul-21 06:33N 47°31' W 122°24'2 2.5
2016-Jul-21 05:34N 47°31' W 122°27'0 0.3
2016-Jul-21 04:33N 47°31' W 122°28'1 0.6
2016-Jul-21 03:33N 47°31' W 122°29'3 2.7
2016-Jul-21 02:34N 47°31' W 122°25'4 3.5
2016-Jul-21 01:34N 47°31' W 122°30'4 4.1
2016-Jul-21 00:34N 47°31' W 122°24'0 0.0
2016-Jul-20 23:33N 47°31' W 122°24'0 0.0
2016-Jul-20 22:32N 47°31' W 122°24'3 2.7
2016-Jul-20 21:34N 47°32' W 122°28'1 1.2
2016-Jul-20 20:33N 47°31' W 122°26'2 2.2
2016-Jul-20 19:33N 47°31' W 122°29'4 3.7
2016-Jul-20 18:33N 47°31' W 122°24'0 0.0
2016-Jul-20 17:33N 47°31' W 122°24'3 2.8
2016-Jul-20 16:33N 47°31' W 122°28'0 0.0
2016-Jul-20 15:33N 47°31' W 122°28'3 2.6
2016-Jul-20 14:33N 47°31' W 122°24'0 0.2
2016-Jul-20 13:33N 47°31' W 122°24'3 2.8
2016-Jul-20 12:33N 47°31' W 122°28'0 0.0
2016-Jul-20 11:34N 47°31' W 122°28'1 1.1
2016-Jul-20 10:33N 47°31' W 122°29'1 1.1
2016-Jul-20 09:34N 47°31' W 122°28'1 1.3
2016-Jul-20 08:33N 47°31' W 122°30'1 1.2
2016-Jul-20 07:33N 47°31' W 122°28'3 2.8
2016-Jul-20 06:34N 47°31' W 122°24'2 1.8
2016-Jul-20 05:33N 47°31' W 122°26'1 0.9
2016-Jul-20 04:33N 47°31' W 122°28'0 0.5
2016-Jul-20 03:33N 47°31' W 122°28'3 2.9
2016-Jul-20 02:34N 47°31' W 122°24'4 3.9
2016-Jul-20 01:34N 47°31' W 122°30'4 4.0
2016-Jul-20 00:33N 47°31' W 122°24'0 0.0
2016-Jul-19 23:33N 47°31' W 122°24'0 0.0
2016-Jul-19 22:33N 47°31' W 122°24'1 1.3
2016-Jul-19 21:33N 47°31' W 122°26'0 0.3
2016-Jul-19 20:34N 47°31' W 122°26'2 1.6
2016-Jul-19 19:33N 47°31' W 122°28'3 3.0
2016-Jul-19 18:33N 47°31' W 122°24'0 0.0
2016-Jul-19 17:33N 47°31' W 122°24'3 2.8
2016-Jul-19 16:33N 47°31' W 122°28'0 0.0
2016-Jul-19 15:34N 47°31' W 122°28'3 2.5
2016-Jul-19 14:34N 47°31' W 122°24'0 0.1
2016-Jul-19 13:33N 47°31' W 122°24'3 2.6
2016-Jul-19 12:33N 47°31' W 122°28'0 0.0
2016-Jul-19 11:34N 47°31' W 122°28'1 1.2
2016-Jul-19 10:34N 47°31' W 122°30'1 1.2
2016-Jul-19 09:33N 47°31' W 122°28'1 1.3
2016-Jul-19 08:33N 47°31' W 122°30'2 2.1
2016-Jul-19 07:33N 47°31' W 122°27'0 0.1
2016-Jul-19 04:34N 47°31' W 122°27'1 0.8
2016-Jul-19 03:33N 47°31' W 122°28'3 3.0
2016-Jul-19 02:32N 47°31' W 122°24'4 4.1
2016-Jul-19 01:33N 47°31' W 122°30'4 4.0
2016-Jul-19 00:34N 47°31' W 122°24'0 0.1
2016-Jul-18 23:33N 47°31' W 122°24'0 0.0
2016-Jul-18 22:33N 47°31' W 122°24'2 2.1
2016-Jul-18 21:33N 47°31' W 122°27'1 1.2
2016-Jul-18 20:33N 47°32' W 122°25'2 2.2
2016-Jul-18 19:34N 47°31' W 122°28'3 3.0
2016-Jul-18 18:33N 47°31' W 122°24'0 0.0
2016-Jul-18 17:33N 47°31' W 122°24'3 2.8
2016-Jul-18 16:34N 47°31' W 122°28'0 0.1
2016-Jul-18 15:33N 47°31' W 122°28'3 2.6
2016-Jul-18 14:33N 47°31' W 122°24'0 0.1
2016-Jul-18 13:34N 47°31' W 122°24'3 2.7
2016-Jul-18 12:33N 47°31' W 122°28'0 0.0
2016-Jul-18 11:33N 47°31' W 122°28'1 1.1
2016-Jul-18 10:34N 47°31' W 122°29'1 1.1
2016-Jul-18 09:33N 47°31' W 122°28'1 1.3
2016-Jul-18 08:33N 47°31' W 122°30'1 1.3
2016-Jul-18 07:33N 47°31' W 122°28'3 2.8
2016-Jul-18 06:33N 47°31' W 122°24'3 2.7
2016-Jul-18 05:34N 47°31' W 122°28'1 0.5
2016-Jul-18 04:33N 47°31' W 122°27'1 0.7
2016-Jul-18 03:33N 47°31' W 122°28'0 0.0
2016-Jul-18 02:33N 47°31' W 122°28'1 0.8
2016-Jul-18 01:33N 47°31' W 122°29'3 3.3
2016-Jul-18 00:33N 47°31' W 122°24'3 2.7
2016-Jul-17 23:33N 47°31' W 122°28'0 0.1
2016-Jul-17 22:33N 47°31' W 122°28'3 2.7
2016-Jul-17 21:33N 47°31' W 122°24'2 2.2
2016-Jul-17 20:34N 47°31' W 122°27'1 1.2
2016-Jul-17 19:33N 47°31' W 122°29'1 1.3
2016-Jul-17 18:33N 47°31' W 122°27'1 0.7
2016-Jul-17 17:33N 47°31' W 122°28'0 0.0
2016-Jul-17 16:34N 47°31' W 122°28'0 0.3
2016-Jul-17 15:33N 47°31' W 122°28'1 1.3
2016-Jul-17 14:33N 47°31' W 122°30'4 3.9
2016-Jul-17 13:33N 47°31' W 122°24'3 2.8
2016-Jul-17 12:33N 47°31' W 122°28'0 0.0
2016-Jul-17 11:33N 47°31' W 122°28'1 1.3
2016-Jul-17 10:33N 47°31' W 122°30'1 1.3
2016-Jul-17 09:33N 47°31' W 122°28'1 1.3
2016-Jul-17 08:34N 47°31' W 122°30'1 0.6
2016-Jul-17 07:33N 47°31' W 122°29'3 3.4
2016-Jul-17 06:33N 47°31' W 122°24'3 1.4
2016-Jul-17 04:34N 47°31' W 122°28'0 0.2
2016-Jul-17 03:33N 47°31' W 122°28'0 0.0
2016-Jul-17 02:33N 47°31' W 122°28'0 0.0
2016-Jul-17 01:33N 47°31' W 122°28'3 2.8
2016-Jul-17 00:33N 47°31' W 122°24'3 2.8
2016-Jul-16 23:33N 47°31' W 122°28'0 0.0
2016-Jul-16 22:33N 47°31' W 122°28'3 2.6
2016-Jul-16 21:33N 47°31' W 122°24'3 2.7
2016-Jul-16 20:34N 47°31' W 122°28'1 0.7
2016-Jul-16 19:33N 47°31' W 122°29'2 1.9
2016-Jul-16 18:33N 47°31' W 122°26'1 1.2
2016-Jul-16 17:34N 47°31' W 122°28'0 0.0
2016-Jul-16 16:33N 47°31' W 122°28'1 1.0
2016-Jul-16 15:34N 47°31' W 122°27'2 2.0
2016-Jul-16 14:34N 47°31' W 122°29'4 3.8
2016-Jul-16 13:33N 47°31' W 122°24'3 2.8
2016-Jul-16 12:33N 47°31' W 122°28'0 0.0
2016-Jul-16 11:34N 47°31' W 122°28'1 1.3
2016-Jul-16 10:33N 47°31' W 122°30'2 2.3
2016-Jul-16 09:34N 47°31' W 122°26'1 1.0
2016-Jul-16 08:34N 47°31' W 122°28'0 0.2
2016-Jul-16 07:33N 47°31' W 122°28'1 1.3
2016-Jul-16 06:33N 47°31' W 122°30'1 0.7
2016-Jul-16 04:33N 47°31' W 122°28'0 0.0
2016-Jul-16 03:33N 47°31' W 122°28'1 1.2
2016-Jul-16 02:33N 47°31' W 122°30'4 3.9
2016-Jul-16 01:34N 47°31' W 122°24'3 2.8
2016-Jul-16 00:34N 47°31' W 122°28'0 0.0
2016-Jul-15 23:33N 47°31' W 122°28'2 1.7
2016-Jul-15 22:33N 47°31' W 122°25'1 1.1
2016-Jul-15 21:33N 47°31' W 122°24'3 2.8
2016-Jul-15 20:33N 47°31' W 122°28'2 1.6
2016-Jul-15 19:33N 47°31' W 122°25'1 1.4
2016-Jul-15 18:33N 47°31' W 122°28'0 0.1
2016-Jul-15 17:34N 47°31' W 122°27'0 0.4
2016-Jul-15 16:33N 47°31' W 122°28'3 2.8
2016-Jul-15 15:33N 47°31' W 122°24'3 2.8
2016-Jul-15 14:33N 47°31' W 122°28'0 0.2
2016-Jul-15 13:34N 47°31' W 122°28'0 0.0
2016-Jul-15 12:33N 47°31' W 122°28'0 0.0
2016-Jul-15 11:33N 47°31' W 122°28'0 0.0
2016-Jul-15 10:33N 47°31' W 122°28'0 0.0
2016-Jul-15 09:33N 47°31' W 122°28'0 0.0
2016-Jul-15 08:34N 47°31' W 122°28'0 0.0
2016-Jul-15 07:34N 47°31' W 122°28'0 0.0
2016-Jul-15 06:33N 47°31' W 122°28'0 0.0
2016-Jul-15 05:33N 47°31' W 122°28'0 0.0
2016-Jul-15 04:34N 47°31' W 122°28'0 0.4
2016-Jul-15 03:34N 47°31' W 122°27'2 1.6
2016-Jul-15 02:33N 47°31' W 122°30'4 3.9
2016-Jul-15 01:31N 47°31' W 122°24'3 2.9
2016-Jul-15 00:33N 47°31' W 122°28'0 0.1
2016-Jul-14 23:33N 47°31' W 122°28'0 0.2
2016-Jul-14 22:34N 47°31' W 122°28'2 2.3
2016-Jul-14 21:33N 47°31' W 122°24'3 2.5
2016-Jul-14 20:34N 47°31' W 122°28'0 0.0
2016-Jul-14 19:33N 47°31' W 122°28'0 0.0
2016-Jul-14 18:34N 47°31' W 122°28'0 0.5
2016-Jul-14 17:34N 47°31' W 122°27'0 0.4
2016-Jul-14 16:34N 47°31' W 122°28'2 2.1
2016-Jul-14 15:33N 47°31' W 122°25'  

Dump ship's entire track history